Time;durP1;ratioP1;P1;durP2;ratioP2;P2;SDS_P1;SDS_P2;PMS_P1;PMS_P2;Temp;Humidity;BMP_temperature;BMP_pressure;BME280_temperature;BME280_humidity;BME280_pressure;Samples;Min_cycle;Max_cycle;Signal;HPM_P1;HPM_P2
2022/08/13 00:02:20;;;;;;;6.28;2.85;;;;;;;24.55;35.23;101509.72;5077564;28;20435;-50
2022/08/13 00:05:09;;;;;;;6.07;3.20;;;;;;;24.50;35.26;101507.97;5095418;28;20139;-50
2022/08/13 00:07:57;;;;;;;10.48;3.20;;;;;;;24.50;35.27;101505.19;5077665;28;20040;-49
2022/08/13 00:10:34;;;;;;;5.68;2.75;;;;;;;24.49;35.24;101508.34;5095615;28;20040;-50
2022/08/13 00:13:04;;;;;;;8.50;3.08;;;;;;;24.47;35.28;101505.88;5095845;28;20036;-47
2022/08/13 00:15:35;;;;;;;6.85;3.45;;;;;;;24.41;35.37;101505.28;5094675;28;20149;-49
2022/08/13 00:18:06;;;;;;;8.40;3.13;;;;;;;24.36;35.55;101507.44;5094736;28;20040;-49
2022/08/13 00:20:42;;;;;;;6.78;2.88;;;;;;;24.31;35.80;101507.66;5095809;28;20050;-49
2022/08/13 00:23:23;;;;;;;9.07;3.00;;;;;;;24.24;35.76;101509.06;5090311;28;20058;-50
2022/08/13 00:26:11;;;;;;;7.28;3.20;;;;;;;24.21;36.00;101509.72;5063809;28;20035;-50
2022/08/13 00:28:57;;;;;;;7.80;3.50;;;;;;;24.16;36.08;101504.38;5074188;28;20040;-50
2022/08/13 00:31:46;;;;;;;6.15;3.10;;;;;;;24.19;35.89;101514.84;5090238;28;20052;-46
2022/08/13 00:34:16;;;;;;;7.60;3.08;;;;;;;24.16;36.09;101509.97;5095522;28;20487;-50
2022/08/13 00:36:45;;;;;;;8.82;3.00;;;;;;;24.16;35.91;101500.78;5077361;28;20047;-51
2022/08/13 00:39:14;;;;;;;7.47;2.95;;;;;;;24.14;36.22;101505.88;5094153;28;20062;-52
2022/08/13 00:42:03;;;;;;;5.78;3.10;;;;;;;24.13;36.27;101498.72;5094208;28;20449;-49
2022/08/13 00:44:48;;;;;;;7.70;3.03;;;;;;;24.12;36.07;101502.63;5095261;28;20395;-52
2022/08/13 00:50:26;;;;;;;7.07;3.22;;;;;;;24.08;36.39;101501.72;5093934;28;20048;-50
2022/08/13 00:53:18;;;;;;;6.40;3.40;;;;;;;23.99;36.51;101499.81;5094086;28;20123;-49
2022/08/13 00:55:55;;;;;;;6.40;3.22;;;;;;;23.98;36.58;101509.34;5093920;28;20036;-49
2022/08/13 00:58:26;;;;;;;6.38;3.33;;;;;;;23.97;36.42;101506.88;5094014;28;20494;-50
2022/08/13 01:00:57;;;;;;;9.07;3.25;;;;;;;23.93;36.57;101505.94;5075257;28;20183;-52
2022/08/13 01:03:31;;;;;;;7.55;3.03;;;;;;;23.87;36.69;101515.66;5077465;28;20509;-50
2022/08/13 01:06:41;;;;;;;6.28;3.03;;;;;;;23.81;36.84;101518.66;5081983;28;20052;-46
2022/08/13 01:09:37;;;;;;;5.97;3.22;;;;;;;23.81;36.88;101515.88;5094700;28;20493;-47
2022/08/13 01:12:27;;;;;;;10.75;3.63;;;;;;;23.77;36.87;101514.94;5094968;28;20040;-50
2022/08/13 01:15:14;;;;;;;9.95;3.00;;;;;;;23.70;37.20;101520.19;5079712;28;20398;-46
2022/08/13 01:17:45;;;;;;;9.18;3.67;;;;;;;23.67;37.30;101515.31;5093884;28;20036;-47
2022/08/13 01:20:44;;;;;;;10.30;3.63;;;;;;;23.63;37.38;101514.38;5075931;28;20533;-51
2022/08/13 01:23:16;;;;;;;7.25;3.20;;;;;;;23.55;37.61;101512.47;5094180;28;20101;-51
2022/08/13 01:25:45;;;;;;;7.50;3.28;;;;;;;23.50;37.74;101515.44;5094171;28;20040;-51
2022/08/13 01:28:28;;;;;;;10.35;3.17;;;;;;;23.46;37.87;101508.94;5093808;28;20054;-51
2022/08/13 01:31:19;;;;;;;6.57;3.00;;;;;;;23.44;38.11;101517.63;5074664;28;20040;-50
2022/08/13 01:33:59;;;;;;;7.10;3.17;;;;;;;23.41;38.07;101514.72;5085257;28;20051;-50
2022/08/13 01:36:33;;;;;;;6.47;3.20;;;;;;;23.36;38.12;101519.31;5078306;28;20046;-47
2022/08/13 01:39:41;;;;;;;7.30;3.17;;;;;;;23.30;38.27;101522.63;5081718;28;20498;-48
2022/08/13 01:42:37;;;;;;;6.30;3.47;;;;;;;23.25;38.37;101518.06;5067893;28;20040;-48
2022/08/13 01:45:06;;;;;;;7.28;3.65;;;;;;;23.20;38.46;101512.72;5094219;28;20050;-49
2022/08/13 01:50:29;;;;;;;7.95;3.15;;;;;;;23.07;38.70;101513.81;5093771;28;20040;-49
2022/08/13 01:53:09;;;;;;;8.07;3.45;;;;;;;23.06;38.87;101514.94;5092697;28;20036;-50
2022/08/13 01:55:41;;;;;;;6.32;3.20;;;;;;;23.04;38.88;101511.66;5075973;28;20445;-54
2022/08/13 01:58:30;;;;;;;7.55;3.72;;;;;;;22.99;38.93;101512.69;5093603;28;20479;-48
2022/08/13 02:01:02;;;;;;;8.60;3.92;;;;;;;22.92;39.10;101507.63;5079709;28;20054;-50
2022/08/13 02:03:38;;;;;;;6.05;3.33;;;;;;;22.89;39.25;101513.84;5092737;28;20036;-49
2022/08/13 02:06:11;;;;;;;6.70;3.30;;;;;;;22.88;39.35;101515.00;5079533;28;20036;-49
2022/08/13 02:08:58;;;;;;;5.70;3.50;;;;;;;22.83;39.51;101509.66;5093409;28;20047;-49
2022/08/13 02:11:32;;;;;;;10.23;3.88;;;;;;;22.75;39.68;101514.09;5092702;28;20443;-49
2022/08/13 02:14:31;;;;;;;7.28;3.70;;;;;;;22.71;39.71;101512.31;5090031;28;20067;-48
2022/08/13 02:17:25;;;;;;;8.55;3.40;;;;;;;22.76;39.68;101509.34;5061106;28;20047;-49
2022/08/13 02:20:17;;;;;;;13.18;4.00;;;;;;;22.71;39.76;101513.13;5093249;28;20046;-50
2022/08/13 02:22:48;;;;;;;8.27;3.63;;;;;;;22.66;39.96;101504.19;5092499;28;20040;-48
2022/08/13 02:25:17;;;;;;;10.15;3.72;;;;;;;22.65;40.12;101510.88;5093422;28;20044;-48
2022/08/13 02:27:44;;;;;;;8.50;3.70;;;;;;;22.64;40.19;101506.47;5092897;28;20044;-48
2022/08/13 02:30:27;;;;;;;7.28;3.67;;;;;;;22.62;40.16;101506.78;5093100;28;20443;-49
2022/08/13 02:32:59;;;;;;;6.75;3.50;;;;;;;22.60;39.96;101505.50;5092987;28;20052;-50
2022/08/13 02:35:28;;;;;;;6.90;3.75;;;;;;;22.58;40.16;101510.56;5094018;28;20044;-49
2022/08/13 02:38:34;;;;;;;8.57;3.35;;;;;;;22.53;40.32;101511.56;5088247;28;20416;-50
2022/08/13 02:43:51;;;;;;;9.02;3.95;;;;;;;22.51;40.28;101503.59;5093066;28;20043;-50
2022/08/13 02:46:26;;;;;;;9.60;3.65;;;;;;;22.49;40.52;101508.66;5093384;28;20048;-52
2022/08/13 02:49:01;;;;;;;10.70;3.80;;;;;;;22.48;40.48;101508.97;5092595;28;20093;-51
2022/08/13 02:51:32;;;;;;;16.58;4.55;;;;;;;22.47;40.41;101508.16;5091888;28;20044;-51
2022/08/13 02:54:20;;;;;;;7.70;3.47;;;;;;;22.45;40.56;101504.09;5091965;28;20043;-50
2022/08/13 02:57:09;;;;;;;10.15;3.75;;;;;;;22.41;40.80;101509.47;5076885;28;20055;-50
2022/08/13 02:59:38;;;;;;;7.35;3.67;;;;;;;22.35;40.87;101499.72;5092529;28;20507;-49
2022/08/13 03:02:28;;;;;;;5.53;3.63;;;;;;;22.33;40.94;101491.72;5092847;28;20036;-51
2022/08/13 03:04:59;;;;;;;15.93;4.07;;;;;;;22.28;41.10;101491.88;5091366;28;20097;-51
2022/08/13 03:07:29;;;;;;;16.42;4.03;;;;;;;22.26;40.95;101496.16;5092863;28;20056;-49
2022/08/13 03:10:18;;;;;;;8.35;3.80;;;;;;;22.24;41.27;101509.53;5092796;28;20041;-50
2022/08/13 03:13:06;;;;;;;11.05;3.70;;;;;;;22.21;41.29;101511.00;5091862;28;20051;-48
2022/08/13 03:15:35;;;;;;;12.02;4.00;;;;;;;22.15;41.39;101501.19;5090736;28;20375;-49
2022/08/13 03:18:24;;;;;;;8.45;3.67;;;;;;;22.09;41.61;101500.56;5077294;28;20036;-48
2022/08/13 03:20:54;;;;;;;7.97;3.90;;;;;;;22.02;41.63;101508.56;5076111;28;20104;-49
2022/08/13 03:23:43;;;;;;;8.25;3.70;;;;;;;21.98;41.96;101512.31;5094597;28;20489;-49
2022/08/13 03:26:18;;;;;;;13.75;4.20;;;;;;;21.97;41.93;101511.53;5095522;28;20040;-50
2022/08/13 03:28:46;;;;;;;11.52;3.85;;;;;;;21.92;42.11;101506.16;5096765;28;20056;-48
2022/08/13 03:31:24;;;;;;;12.00;3.90;;;;;;;21.86;42.09;101510.22;5094768;28;20043;-50
2022/08/13 03:33:58;;;;;;;8.88;3.70;;;;;;;21.86;42.27;101513.00;5096701;28;20386;-49
2022/08/13 03:36:32;;;;;;;11.45;3.85;;;;;;;21.87;42.28;101507.13;5095590;28;20514;-49
2022/08/13 03:39:01;;;;;;;9.95;4.03;;;;;;;21.85;42.15;101509.41;5061347;28;20113;-49
2022/08/13 03:41:29;;;;;;;12.98;3.50;;;;;;;21.83;42.18;101506.13;5078655;28;20044;-48
2022/08/13 03:44:06;;;;;;;12.60;3.80;;;;;;;21.81;42.44;101513.16;5096015;28;20434;-51
2022/08/13 03:46:57;;;;;;;6.95;3.80;;;;;;;21.85;42.20;101508.59;5078296;28;20047;-50
2022/08/13 03:49:36;;;;;;;12.15;3.65;;;;;;;21.89;42.14;101510.38;5095807;28;20417;-49
2022/08/13 03:52:04;;;;;;;9.77;3.72;;;;;;;21.86;42.12;101505.50;5096066;28;20048;-49
2022/08/13 03:54:32;;;;;;;11.30;3.70;;;;;;;21.83;42.20;101513.66;5096431;28;20046;-49
2022/08/13 03:57:22;;;;;;;7.65;3.38;;;;;;;21.80;42.24;101512.34;5091992;28;20047;-50
2022/08/13 03:59:55;;;;;;;18.60;3.80;;;;;;;21.85;41.96;101509.41;5078479;28;20051;-53
2022/08/13 04:02:40;;;;;;;9.18;3.95;;;;;;;21.83;41.97;101510.88;5079411;28;20044;-49
2022/08/13 04:05:30;;;;;;;9.18;3.30;;;;;;;21.79;42.20;101504.34;5092651;28;20040;-49
2022/08/13 04:08:15;;;;;;;11.50;3.90;;;;;;;21.84;42.10;101501.41;5079595;28;20097;-50
2022/08/13 04:10:43;;;;;;;13.10;3.80;;;;;;;21.84;42.06;101506.94;5077485;28;20399;-50
2022/08/13 04:13:20;;;;;;;10.40;3.45;;;;;;;21.78;42.30;101499.97;5077862;28;20040;-49
2022/08/13 04:16:14;;;;;;;8.88;3.60;;;;;;;21.66;42.40;101495.88;5079596;28;20050;-49
2022/08/13 04:18:43;;;;;;;10.13;3.80;;;;;;;21.61;42.74;101498.81;5095438;28;20040;-48
2022/08/13 04:21:14;;;;;;;15.35;3.42;;;;;;;21.61;42.74;101498.81;5095159;28;20044;-49
2022/08/13 04:23:50;;;;;;;11.50;3.20;;;;;;;21.64;42.70;101509.25;5095791;28;20042;-48
2022/08/13 04:26:25;;;;;;;11.05;3.45;;;;;;;21.69;42.72;101503.56;5094166;28;20044;-49
2022/08/13 04:28:59;;;;;;;12.50;3.60;;;;;;;21.72;42.58;101504.03;5095334;28;20048;-48
2022/08/13 04:31:27;;;;;;;10.40;3.78;;;;;;;21.70;42.50;101507.97;5076888;28;20062;-48
2022/08/13 04:34:19;;;;;;;9.70;3.35;;;;;;;21.67;42.63;101516.94;5095425;28;20092;-50
2022/08/13 04:37:09;;;;;;;11.60;3.53;;;;;;;21.66;42.77;101512.50;5094331;28;20032;-50
2022/08/13 04:39:49;;;;;;;12.73;3.67;;;;;;;21.59;42.76;101517.75;5089520;28;20043;-46
2022/08/13 04:42:57;;;;;;;10.27;3.40;;;;;;;21.51;43.09;101515.78;5087023;28;20102;-50
2022/08/13 04:45:45;;;;;;;9.82;3.28;;;;;;;21.49;43.20;101510.56;5076562;28;20486;-50
2022/08/13 04:48:36;;;;;;;13.23;3.85;;;;;;;21.52;43.15;101522.16;5094175;28;20471;-50
2022/08/13 04:51:25;;;;;;;8.18;3.70;;;;;;;21.48;43.20;101522.81;5091340;28;20048;-49
2022/08/13 04:54:00;;;;;;;8.70;2.80;;;;;;;21.49;43.13;101518.06;5095250;28;20491;-50
2022/08/13 04:56:29;;;;;;;14.80;3.60;;;;;;;21.47;43.17;101518.38;5076201;28;20042;-48
2022/08/13 04:58:57;;;;;;;10.05;3.03;;;;;;;21.47;43.23;101521.16;5094344;28;20048;-50
2022/08/13 05:01:26;;;;;;;11.00;3.33;;;;;;;21.50;43.23;101525.22;5094633;28;20054;-51
2022/08/13 05:04:17;;;;;;;21.27;3.78;;;;;;;21.52;43.07;101519.38;5094889;28;20040;-47
2022/08/13 05:07:10;;;;;;;10.23;3.35;;;;;;;21.47;43.21;101523.13;5088365;28;20498;-50
2022/08/13 05:09:58;;;;;;;15.07;3.75;;;;;;;21.42;43.41;101528.81;5094561;28;20036;-55
2022/08/13 05:12:27;;;;;;;6.55;2.90;;;;;;;21.47;44.44;101528.66;5059909;28;20040;-56
2022/08/13 05:15:16;;;;;;;6.38;2.95;;;;;;;21.63;44.35;101523.47;5076263;28;20040;-52
2022/08/13 05:18:24;;;;;;;8.90;2.95;;;;;;;21.72;43.98;101532.59;5083779;28;20044;-48
2022/08/13 05:20:59;;;;;;;11.70;2.97;;;;;;;21.76;43.42;101525.25;5077026;28;20130;-54
2022/08/13 05:23:38;;;;;;;7.32;3.00;;;;;;;21.82;42.95;101531.47;5094227;28;20448;-49
2022/08/13 05:26:31;;;;;;;7.22;3.08;;;;;;;21.84;43.16;101534.69;5091947;28;20411;-47
2022/08/13 05:29:39;;;;;;;7.45;2.80;;;;;;;21.82;44.06;101531.47;5079844;28;20040;-47
2022/08/13 05:32:27;;;;;;;8.25;3.28;;;;;;;21.82;43.21;101537.81;5074958;28;20052;-49
2022/08/13 05:35:15;;;;;;;11.48;3.13;;;;;;;21.82;43.22;101531.47;5092680;28;20028;-50
2022/08/13 05:37:43;;;;;;;8.77;2.63;;;;;;;21.82;43.44;101528.69;5092777;28;20081;-46
2022/08/13 05:40:33;;;;;;;7.88;2.70;;;;;;;21.84;43.44;101534.69;5076236;28;20048;-46
2022/08/13 05:43:26;;;;;;;8.75;3.00;;;;;;;21.81;43.33;101522.28;5093493;28;20044;-49
2022/08/13 05:46:14;;;;;;;9.25;2.72;;;;;;;21.83;44.19;101527.53;5093460;28;20406;-49
2022/08/13 05:48:55;;;;;;;8.57;2.85;;;;;;;21.85;43.46;101520.50;5092531;28;20521;-50
2022/08/13 05:51:31;;;;;;;6.88;2.95;;;;;;;21.87;43.36;101520.19;5093855;28;20044;-53
2022/08/13 05:54:19;;;;;;;6.15;2.53;;;;;;;21.89;43.39;101526.22;5094037;28;20479;-52
2022/08/13 05:57:07;;;;;;;4.95;2.70;;;;;;;21.89;43.58;101531.78;5093324;28;20074;-53
2022/08/13 06:05:15;;;;;;;6.95;3.17;;;;;;;21.97;43.49;101522.63;5093702;28;20039;-49
2022/08/13 06:07:44;;;;;;;4.35;2.63;;;;;;;21.96;44.02;101528.47;5092478;28;20081;-49
2022/08/13 06:10:12;;;;;;;7.18;2.72;;;;;;;21.95;43.78;101530.44;5074968;28;20521;-51
2022/08/13 06:12:43;;;;;;;6.57;2.80;;;;;;;21.94;43.83;101528.03;5076306;28;20040;-48
2022/08/13 06:15:24;;;;;;;4.88;2.63;;;;;;;22.00;43.69;101521.16;5075935;28;20047;-52
2022/08/13 06:18:12;;;;;;;6.10;2.70;;;;;;;22.06;43.84;101525.41;5070545;28;20040;-48
2022/08/13 06:20:43;;;;;;;7.38;2.72;;;;;;;22.11;43.96;101523.25;5071397;28;20066;-50
2022/08/13 06:23:45;;;;;;;8.43;3.25;;;;;;;22.17;43.58;101523.06;5091569;28;20044;-51
2022/08/13 06:26:34;;;;;;;10.13;3.38;;;;;;;22.17;43.77;101525.84;5090151;28;20051;-51
2022/08/13 06:29:23;;;;;;;4.35;2.53;;;;;;;22.17;44.10;101526.66;5090285;28;20091;-50
2022/08/13 06:31:57;;;;;;;4.13;2.53;;;;;;;22.17;44.12;101520.28;5072713;28;20410;-51
2022/08/13 06:34:25;;;;;;;7.05;2.78;;;;;;;22.17;44.20;101525.84;5073888;28;20047;-48
2022/08/13 06:37:22;;;;;;;5.65;2.90;;;;;;;22.15;44.20;101528.13;5091331;28;20040;-49
2022/08/13 06:40:11;;;;;;;6.88;2.70;;;;;;;22.16;44.44;101527.81;5091558;28;20587;-50
2022/08/13 06:43:01;;;;;;;7.50;2.95;;;;;;;22.23;44.36;101527.34;5070370;28;20042;-48
2022/08/13 06:45:30;;;;;;;7.20;2.97;;;;;;;22.29;44.40;101531.56;5074179;28;20055;-52
2022/08/13 06:48:02;;;;;;;7.63;2.72;;;;;;;22.35;43.74;101533.03;5091834;28;20044;-48
2022/08/13 06:50:50;;;;;;;5.82;2.90;;;;;;;22.38;43.53;101526.81;5085086;28;20059;-51
2022/08/13 06:53:19;;;;;;;9.38;2.72;;;;;;;22.42;43.42;101526.97;5091767;28;20406;-49
2022/08/13 06:56:11;;;;;;;7.10;2.65;;;;;;;22.45;43.18;101532.66;5092273;28;20043;-51
2022/08/13 06:59:00;;;;;;;20.50;2.95;;;;;;;22.48;43.16;101531.19;5095051;28;20046;-53
2022/08/13 07:01:37;;;;;;;6.45;2.65;;;;;;;22.51;42.84;101536.06;5080242;28;20398;-50
2022/08/13 07:04:25;;;;;;;6.63;2.53;;;;;;;22.57;43.03;101533.94;5087803;28;20048;-45
2022/08/13 07:06:57;;;;;;;6.40;2.90;;;;;;;22.57;43.05;101533.94;5096341;28;20036;-46
2022/08/13 07:09:46;;;;;;;10.52;3.05;;;;;;;22.58;43.15;101532.78;5079157;28;20134;-50
2022/08/13 07:12:15;;;;;;;5.75;2.28;;;;;;;22.60;43.28;101538.81;5089274;28;20036;-46
2022/08/13 07:14:43;;;;;;;7.13;2.85;;;;;;;22.62;43.25;101536.53;5077208;28;20405;-51
2022/08/13 07:17:34;;;;;;;4.10;2.35;;;;;;;22.66;43.70;101537.50;5093488;28;20082;-46
2022/08/13 07:20:23;;;;;;;8.07;3.03;;;;;;;22.68;43.45;101533.25;5092774;28;20488;-45
2022/08/13 07:22:56;;;;;;;7.72;3.08;;;;;;;22.71;43.81;101540.09;5061782;28;20409;-47
2022/08/13 07:25:45;;;;;;;6.63;3.00;;;;;;;22.73;43.77;101541.41;5082100;28;20040;-51
2022/08/13 07:28:51;;;;;;;7.10;3.30;;;;;;;22.78;44.29;101537.63;5069129;28;20044;-51
2022/08/13 07:31:29;;;;;;;8.07;3.67;;;;;;;22.80;43.89;101537.28;5103788;28;20048;-48
2022/08/13 07:34:37;;;;;;;10.65;3.95;;;;;;;22.87;44.12;101543.94;5096247;28;20113;-51
2022/08/13 07:37:19;;;;;;;16.02;5.53;;;;;;;22.97;43.80;101543.56;5096463;28;20032;-50
2022/08/13 07:39:49;;;;;;;8.80;3.63;;;;;;;23.05;43.50;101547.47;5096690;28;20048;-50
2022/08/13 07:42:21;;;;;;;18.05;4.65;;;;;;;23.04;43.06;101550.59;5084846;28;20036;-51
2022/08/13 07:44:59;;;;;;;13.68;4.60;;;;;;;23.03;43.11;101546.19;5096089;28;20039;-49
2022/08/13 07:47:50;;;;;;;11.75;4.13;;;;;;;23.01;43.23;101543.72;5096524;28;20042;-50
2022/08/13 07:51:02;;;;;;;6.53;2.90;;;;;;;23.07;43.02;101547.16;5084516;28;20032;-49
2022/08/13 07:53:35;;;;;;;7.68;2.88;;;;;;;23.11;43.06;101542.53;5077901;28;20056;-50
2022/08/13 07:56:31;;;;;;;9.95;3.10;;;;;;;23.14;42.76;101542.69;5080829;28;20052;-49
2022/08/13 07:59:04;;;;;;;7.18;3.38;;;;;;;23.16;42.62;101540.41;5078825;28;20039;-48
2022/08/13 08:01:42;;;;;;;6.07;2.90;;;;;;;23.18;42.52;101543.63;5095568;28;20056;-49
2022/08/13 08:04:50;;;;;;;10.60;3.60;;;;;;;23.30;42.52;101540.13;5095241;28;20044;-50
2022/08/13 08:07:25;;;;;;;6.22;2.80;;;;;;;23.34;42.23;101540.28;5094102;28;20494;-54
2022/08/13 08:10:13;;;;;;;7.35;3.10;;;;;;;23.36;42.45;101543.53;5094355;28;20043;-50
2022/08/13 08:12:46;;;;;;;9.50;3.10;;;;;;;23.45;42.20;101540.69;5095234;28;20051;-52
2022/08/13 08:15:43;;;;;;;7.53;3.40;;;;;;;23.51;42.12;101545.72;5076027;28;20123;-53
2022/08/13 08:18:33;;;;;;;7.30;3.13;;;;;;;23.58;42.33;101547.97;5095809;28;20120;-54
2022/08/13 08:21:23;;;;;;;14.85;3.10;;;;;;;23.57;42.71;101549.09;5094341;28;20032;-53
2022/08/13 08:24:13;;;;;;;9.60;3.15;;;;;;;23.58;42.93;101545.19;5080298;28;20036;-50
2022/08/13 08:27:00;;;;;;;;;;;;;;;23.58;43.03;101548.75;5080763;28;20043;-52
2022/08/13 08:29:31;;;;;;;7.95;3.00;;;;;;;23.62;43.20;101551.69;5077790;28;19969;-51
2022/08/13 08:32:07;;;;;;;9.32;3.00;;;;;;;23.66;43.14;101547.06;5075749;28;20066;-52
2022/08/13 08:34:56;;;;;;;15.30;3.25;;;;;;;23.69;43.47;101551.97;5084408;28;20051;-54
2022/08/13 08:44:05;;;;;;;7.28;3.22;;;;;;;23.80;42.39;101550.41;5095078;28;20044;-50
2022/08/13 08:46:38;;;;;;;6.05;3.20;;;;;;;23.84;42.05;101546.97;5077517;28;20502;-52
2022/08/13 08:49:16;;;;;;;7.18;3.25;;;;;;;23.89;42.34;101547.56;5077921;28;20035;-51
2022/08/13 08:52:03;;;;;;;5.75;2.78;;;;;;;23.93;42.52;101556.03;5079985;28;20044;-51
2022/08/13 08:54:31;;;;;;;8.57;3.00;;;;;;;23.97;42.71;101545.84;5042850;28;20052;-53
2022/08/13 08:57:03;;;;;;;7.00;2.80;;;;;;;24.08;41.50;101551.84;5060807;28;20123;-48
2022/08/13 08:59:35;;;;;;;4.95;2.53;;;;;;;24.18;41.40;101541.06;5077102;28;20466;-49
2022/08/13 09:02:24;;;;;;;6.80;2.33;;;;;;;24.24;40.62;101542.50;5094668;28;20394;-49
2022/08/13 09:04:54;;;;;;;10.02;2.67;;;;;;;24.28;40.44;101536.22;5094733;28;20050;-51
2022/08/13 09:07:36;;;;;;;7.90;3.00;;;;;;;24.36;40.55;101540.88;5094666;28;20040;-51
2022/08/13 09:10:06;;;;;;;7.10;2.80;;;;;;;24.50;39.24;101546.97;5094578;28;20124;-50
2022/08/13 09:12:36;;;;;;;9.35;2.72;;;;;;;24.59;39.44;101541.31;5094681;28;20397;-51
2022/08/13 09:15:25;;;;;;;9.13;2.60;;;;;;;24.63;39.02;101537.47;5078892;28;20058;-53
2022/08/13 09:17:57;;;;;;;4.68;2.60;;;;;;;24.61;39.32;101531.44;5075704;28;20488;-50
2022/08/13 09:20:45;;;;;;;7.65;2.78;;;;;;;24.62;39.54;101535.84;5092016;28;20509;-50
2022/08/13 09:23:25;;;;;;;10.73;2.70;;;;;;;24.64;39.91;101530.72;5076340;28;20052;-49
2022/08/13 09:26:15;;;;;;;6.28;2.75;;;;;;;24.71;39.96;101529.34;5088469;28;20084;-50
2022/08/13 09:28:56;;;;;;;5.20;2.35;;;;;;;24.81;38.60;101521.34;5078147;28;20436;-50
2022/08/13 09:31:24;;;;;;;6.15;2.58;;;;;;;24.87;37.57;101531.09;5093267;28;20382;-51
2022/08/13 09:33:53;;;;;;;6.38;2.25;;;;;;;24.88;36.35;101529.13;5094445;28;20028;-50
2022/08/13 09:36:31;;;;;;;8.35;2.30;;;;;;;24.93;37.35;101530.88;5093896;28;20051;-51
2022/08/13 09:39:49;;;;;;;5.97;2.50;;;;;;;24.99;37.44;101532.25;5079201;28;20048;-50
2022/08/13 09:42:28;;;;;;;9.32;2.40;;;;;;;25.00;38.03;101519.94;5075996;28;20466;-51
2022/08/13 09:44:58;;;;;;;4.78;2.35;;;;;;;25.01;37.95;101527.94;5075652;28;20040;-55
2022/08/13 09:47:28;;;;;;;6.75;2.47;;;;;;;25.03;37.47;101514.47;5094301;28;20040;-51
2022/08/13 09:50:16;;;;;;;4.45;2.15;;;;;;;25.12;36.06;101516.34;5093677;28;20044;-50
2022/08/13 09:52:44;;;;;;;5.95;2.25;;;;;;;25.13;36.54;101517.94;5076104;28;20080;-49
2022/08/13 09:55:12;;;;;;;5.18;2.13;;;;;;;25.16;37.09;101523.66;5093469;28;20089;-51
2022/08/13 09:57:55;;;;;;;5.68;2.55;;;;;;;25.25;36.60;101520.75;5093681;28;20047;-50
2022/08/13 10:00:24;;;;;;;8.65;2.72;;;;;;;25.34;36.95;101517.84;5075984;28;20048;-50
2022/08/13 10:02:57;;;;;;;4.32;2.22;;;;;;;25.37;37.03;101514.34;5093550;28;20097;-50
2022/08/13 10:05:25;;;;;;;7.13;2.50;;;;;;;25.41;36.51;101513.28;5093227;28;20410;-52
2022/08/13 10:08:06;;;;;;;10.27;2.80;;;;;;;25.50;36.78;101511.16;5093375;28;20051;-50
2022/08/13 10:10:36;;;;;;;3.28;2.47;;;;;;;25.57;37.28;101509.75;5093822;28;20384;-53
2022/08/13 10:13:04;;;;;;;7.72;2.40;;;;;;;25.64;36.86;101505.19;5093307;28;20036;-52
2022/08/13 10:15:33;;;;;;;7.18;2.88;;;;;;;25.72;36.66;101497.84;5075512;28;20528;-50
2022/08/13 10:18:21;;;;;;;4.05;2.40;;;;;;;25.73;36.42;101499.44;5078336;28;20055;-56
2022/08/13 10:20:52;;;;;;;7.55;2.30;;;;;;;25.73;35.77;101491.06;5093643;28;20414;-55
2022/08/13 10:23:41;;;;;;;5.00;2.20;;;;;;;25.69;35.65;101491.00;5089242;28;20044;-51
2022/08/13 10:26:28;;;;;;;4.68;2.20;;;;;;;25.70;35.90;101491.78;5091896;28;20062;-51
2022/08/13 10:28:56;;;;;;;5.38;2.22;;;;;;;25.71;35.46;101487.81;5075154;28;20044;-51
2022/08/13 10:31:27;;;;;;;3.80;2.38;;;;;;;25.71;35.44;101493.41;5092305;28;20043;-51
2022/08/13 10:34:15;;;;;;;6.95;2.22;;;;;;;25.78;34.97;101488.03;5092599;28;20392;-51
2022/08/13 10:37:03;;;;;;;4.85;2.28;;;;;;;25.87;34.70;101485.94;5091296;28;20054;-49
2022/08/13 10:39:37;;;;;;;2.30;2.00;;;;;;;25.98;34.24;101493.78;5076301;28;20036;-50
2022/08/13 10:42:21;;;;;;;6.15;1.83;;;;;;;26.20;32.57;101473.66;5092735;28;20044;-50
2022/08/13 10:45:10;;;;;;;3.22;1.75;;;;;;;26.42;31.27;101477.00;5093092;28;20048;-54
2022/08/13 10:47:58;;;;;;;5.22;1.95;;;;;;;26.49;31.79;101477.19;5083465;28;20051;-51
2022/08/13 10:50:31;;;;;;;13.27;2.45;;;;;;;26.70;31.94;101472.13;5090997;28;20048;-48
2022/08/13 10:53:00;;;;;;;3.83;2.00;;;;;;;26.77;32.00;101477.91;5074132;28;20039;-46
2022/08/13 10:55:29;;;;;;;4.97;1.75;;;;;;;26.87;29.93;101475.72;5092447;28;20387;-47
2022/08/13 10:58:11;;;;;;;2.45;1.73;;;;;;;26.88;30.20;101477.34;5093050;28;20055;-52
2022/08/13 11:01:23;;;;;;;3.15;2.05;;;;;;;26.72;31.24;101474.56;5090256;28;20571;-53
2022/08/13 11:03:53;;;;;;;7.43;2.28;;;;;;;26.72;31.75;101475.38;5092569;28;20046;-54
2022/08/13 11:06:54;;;;;;;6.95;2.38;;;;;;;26.74;31.53;101475.81;5092671;28;20516;-52
2022/08/13 11:09:42;;;;;;;1.95;1.70;;;;;;;26.78;29.99;101467.53;5080402;28;20502;-54
2022/08/13 11:12:42;;;;;;;5.15;1.90;;;;;;;26.76;30.75;101470.66;5075692;28;20440;-53
2022/08/13 11:15:11;;;;;;;3.72;2.13;;;;;;;26.77;30.82;101474.28;5091760;28;20044;-54
2022/08/13 11:17:48;;;;;;;3.35;2.00;;;;;;;26.70;30.29;101471.34;5092911;28;20085;-54
2022/08/13 11:20:24;;;;;;;5.68;2.20;;;;;;;26.72;30.68;101474.56;5092850;28;20055;-55
2022/08/13 11:22:55;;;;;;;3.72;2.05;;;;;;;26.83;30.84;101475.63;5092779;28;20477;-48
2022/08/13 11:25:24;;;;;;;5.38;2.17;;;;;;;27.05;30.62;101464.94;5088116;28;20041;-47
2022/08/13 11:28:31;;;;;;;3.13;1.85;;;;;;;27.08;30.53;101462.19;5090389;28;20036;-48
2022/08/13 11:31:20;;;;;;;2.55;1.77;;;;;;;26.97;30.66;101458.38;5091834;28;20102;-50
2022/08/13 11:34:07;;;;;;;3.72;1.92;;;;;;;27.04;30.34;101457.72;5077690;28;20458;-48
2022/08/13 11:36:41;;;;;;;6.13;2.28;;;;;;;27.08;30.42;101458.59;4386439;28;10000180;-48
2022/08/13 11:39:15;;;;;;;5.40;1.83;;;;;;;27.23;30.08;101451.34;5087823;28;20039;-50
2022/08/13 11:42:03;;;;;;;4.88;1.90;;;;;;;27.26;29.85;101448.66;5090307;28;20051;-50
2022/08/13 11:44:33;;;;;;;3.70;2.40;;;;;;;27.23;30.07;101454.16;5092924;28;20062;-50
2022/08/13 11:47:00;;;;;;;3.92;2.25;;;;;;;27.15;30.34;101447.56;5093521;28;20048;-52
2022/08/13 11:49:45;;;;;;;8.73;2.15;;;;;;;27.09;30.26;101449.84;5092693;28;20044;-50
2022/08/13 11:52:17;;;;;;;5.53;1.98;;;;;;;27.06;30.75;101442.19;5092473;28;20050;-49
2022/08/13 11:54:55;;;;;;;7.55;2.30;;;;;;;27.09;30.94;101447.06;5089664;28;20093;-50
2022/08/13 11:57:23;;;;;;;5.20;2.50;;;;;;;27.13;30.70;101447.13;5091036;28;20046;-49
2022/08/13 12:00:15;;;;;;;5.80;2.45;;;;;;;27.19;30.19;101443.72;5089637;28;20044;-48
2022/08/13 12:02:58;;;;;;;4.13;2.20;;;;;;;27.17;30.05;101439.63;5089738;28;20537;-49
2022/08/13 12:05:26;;;;;;;5.25;1.90;;;;;;;27.15;30.11;101434.38;5060417;28;20054;-51
2022/08/13 12:07:55;;;;;;;6.40;2.38;;;;;;;27.14;30.06;101441.16;5092428;28;20378;-52
2022/08/13 12:10:29;;;;;;;4.65;2.35;;;;;;;27.14;30.05;101432.78;5092322;28;20067;-53
2022/08/13 12:13:16;;;;;;;8.10;2.38;;;;;;;27.25;29.50;101441.44;5092374;28;20058;-47
2022/08/13 12:15:48;;;;;;;2.72;1.95;;;;;;;27.31;29.22;101439.97;5091172;28;20036;-50
2022/08/13 12:18:36;;;;;;;6.20;1.80;;;;;;;27.29;29.39;101435.91;5091866;28;20092;-53
2022/08/13 12:21:10;;;;;;;4.68;2.03;;;;;;;27.29;29.29;101439.50;5077246;28;20063;-55
2022/08/13 12:24:05;;;;;;;3.78;2.13;;;;;;;27.34;29.43;101433.63;5094244;28;20077;-52
2022/08/13 12:26:37;;;;;;;4.68;2.20;;;;;;;27.32;29.19;101435.97;5094091;28;20040;-51
2022/08/13 12:29:05;;;;;;;6.97;2.35;;;;;;;27.36;29.11;101430.47;5094451;28;20452;-53
2022/08/13 12:31:33;;;;;;;2.55;1.58;;;;;;;27.41;29.48;101427.38;5094516;28;20050;-51
2022/08/13 12:34:01;;;;;;;2.70;1.77;;;;;;;27.43;29.39;101425.00;5095251;28;20046;-53
2022/08/13 12:36:49;;;;;;;4.70;1.95;;;;;;;27.46;29.37;101423.47;5077675;28;20525;-53
2022/08/13 12:39:36;;;;;;;2.53;1.90;;;;;;;27.73;28.24;101418.78;5092506;28;20048;-47
2022/08/13 12:42:38;;;;;;;6.15;1.80;;;;;;;27.86;28.37;101409.06;5092117;28;20491;-48
2022/08/13 12:45:26;;;;;;;2.78;1.88;;;;;;;27.75;28.60;101410.81;5089144;28;20442;-51
2022/08/13 12:48:33;;;;;;;4.45;1.75;;;;;;;27.78;28.70;101401.66;5088083;28;20105;-51